createdAt,value
2023-05-05T00:02:20.435Z,100446.00
2023-05-05T00:05:24.028Z,100444.13
2023-05-05T00:08:26.154Z,100451.47
2023-05-05T00:11:27.945Z,100416.34
2023-05-05T00:14:29.813Z,100447.34
2023-05-05T00:17:33.083Z,100441.59
2023-05-05T00:20:34.965Z,100443.19
2023-05-05T00:23:37.080Z,100431.38
2023-05-05T00:26:38.916Z,100428.84
2023-05-05T00:29:41.033Z,100450.63
2023-05-05T00:32:44.367Z,100428.72
2023-05-05T00:35:46.170Z,100436.66
2023-05-05T00:38:48.080Z,100440.31
2023-05-05T00:41:49.951Z,100443.09
2023-05-05T00:44:52.070Z,100426.50
2023-05-05T00:47:57.432Z,100438.81
2023-05-05T00:50:59.720Z,100424.59
2023-05-05T00:54:02.052Z,100433.13
2023-05-05T00:57:04.236Z,100436.19
2023-05-05T01:00:09.897Z,100436.03
2023-05-05T01:03:15.452Z,100410.66
2023-05-05T01:06:33.686Z,100430.59
2023-05-05T01:09:42.135Z,100433.69
2023-05-05T01:12:51.615Z,100426.72
2023-05-05T01:16:01.561Z,100420.03
2023-05-05T01:19:29.727Z,100388.78
2023-05-05T01:22:38.376Z,100420.75
2023-05-05T01:26:08.552Z,100413.06
2023-05-05T01:29:31.549Z,100419.22
2023-05-05T01:32:40.006Z,100405.38
2023-05-05T01:35:45.920Z,100415.44
2023-05-05T01:38:50.995Z,100428.97
2023-05-05T01:41:59.010Z,100411.09
2023-05-05T01:45:04.868Z,100419.06
2023-05-05T01:48:09.661Z,100401.06
2023-05-05T01:51:13.165Z,100425.91
2023-05-05T01:54:18.716Z,100419.63
2023-05-05T01:57:21.617Z,100424.66
2023-05-05T02:00:25.340Z,100398.56
2023-05-05T02:03:30.713Z,100415.16
2023-05-05T02:06:33.601Z,100397.56
2023-05-05T02:09:37.124Z,100411.53
2023-05-05T02:12:41.036Z,100410.09
2023-05-05T02:15:44.698Z,100409.28
2023-05-05T02:18:49.046Z,100415.16
2023-05-05T02:21:50.960Z,100412.94
2023-05-05T02:24:54.423Z,100413.63
2023-05-05T02:28:03.872Z,100412.94
2023-05-05T02:31:07.278Z,100407.88
2023-05-05T02:34:11.558Z,100415.16
2023-05-05T02:37:18.929Z,100419.63
2023-05-05T02:40:24.636Z,100417.53
2023-05-05T02:43:28.292Z,100412.50
2023-05-05T02:46:31.354Z,100412.25
2023-05-05T02:49:34.677Z,100392.72
2023-05-05T02:52:36.585Z,100418.78
2023-05-05T02:55:45.340Z,100388.66
2023-05-05T02:58:53.107Z,100411.00
2023-05-05T03:02:06.748Z,100413.06
2023-05-05T03:05:15.137Z,100412.22
2023-05-05T03:08:20.556Z,100408.75
2023-05-05T03:11:29.265Z,100409.81
2023-05-05T03:14:36.439Z,100416.09
2023-05-05T03:17:40.747Z,100405.09
2023-05-05T03:20:44.493Z,100394.91
2023-05-05T03:23:46.785Z,100407.47
2023-05-05T03:26:49.729Z,100406.91
2023-05-05T03:29:51.637Z,100404.69
2023-05-05T03:32:53.489Z,100394.22
2023-05-05T03:35:57.051Z,100405.66
2023-05-05T03:38:58.873Z,100401.19
2023-05-05T03:42:00.802Z,100404.81
2023-05-05T03:45:04.076Z,100394.22
2023-05-05T03:48:06.688Z,100409.56
2023-05-05T03:51:09.944Z,100415.44
2023-05-05T03:54:11.729Z,100418.66
2023-05-05T03:57:13.647Z,100426.75
2023-05-05T04:00:16.080Z,100415.28
2023-05-05T04:03:18.792Z,100408.75
2023-05-05T04:06:22.164Z,100424.38
2023-05-05T04:09:24.505Z,100421.19
2023-05-05T04:12:26.307Z,100413.63
2023-05-05T04:15:28.579Z,100423.53
2023-05-05T04:18:30.501Z,100421.28
2023-05-05T04:21:33.733Z,100424.75
2023-05-05T04:24:36.574Z,100415.56
2023-05-05T04:27:38.496Z,100431.03
2023-05-05T04:30:41.020Z,100430.63
2023-05-05T04:33:42.817Z,100428.81
2023-05-05T04:36:45.982Z,100439.41
2023-05-05T04:39:47.780Z,100441.47
2023-05-05T04:42:49.609Z,100438.69
2023-05-05T04:45:54.887Z,100440.94
2023-05-05T04:48:58.584Z,100442.59
2023-05-05T04:52:01.911Z,100435.63
2023-05-05T04:55:05.043Z,100444.28
2023-05-05T04:58:06.842Z,100450.28
2023-05-05T05:01:09.432Z,100464.50
2023-05-05T05:04:11.332Z,100461.28
2023-05-05T05:07:15.186Z,100450.38
2023-05-05T05:10:17.432Z,100458.25
2023-05-05T05:13:19.486Z,100455.47
2023-05-05T05:16:22.097Z,100460.03
2023-05-05T05:19:24.040Z,100461.00
2023-05-05T05:22:27.704Z,100465.53
2023-05-05T05:25:29.584Z,100470.63
2023-05-05T05:28:32.464Z,100461.63
2023-05-05T05:31:34.570Z,100466.41
2023-05-05T05:34:36.434Z,100471.34
2023-05-05T05:37:39.608Z,100474.28
2023-05-05T05:40:42.508Z,100459.75
2023-05-05T05:43:44.309Z,100463.84
2023-05-05T05:46:46.129Z,100464.28
2023-05-05T05:49:48.379Z,100482.41
2023-05-05T05:52:51.526Z,100473.94
2023-05-05T05:55:54.312Z,100463.00
2023-05-05T05:58:56.314Z,100467.44
2023-05-05T06:01:58.684Z,100404.19
2023-05-05T06:05:01.470Z,100401.19
2023-05-05T06:08:05.148Z,100440.66
2023-05-05T06:11:07.346Z,100424.22
2023-05-05T06:14:09.216Z,100417.97
2023-05-05T06:17:11.013Z,100417.00
2023-05-05T06:20:14.006Z,100409.25
2023-05-05T06:23:17.260Z,100403.84
2023-05-05T06:26:19.291Z,100408.78
2023-05-05T06:29:22.375Z,100408.44
2023-05-05T06:32:25.372Z,100464.63
2023-05-05T06:35:27.243Z,100455.03
2023-05-05T06:38:30.767Z,100448.38
2023-05-05T06:41:32.593Z,100458.75
2023-05-05T06:44:36.507Z,100456.44
2023-05-05T06:47:38.330Z,100456.38
2023-05-05T06:50:41.199Z,100429.78
2023-05-05T06:53:44.415Z,100458.03
2023-05-05T06:56:47.120Z,100444.28
2023-05-05T06:59:48.973Z,100457.09
2023-05-05T07:02:51.165Z,100445.22
2023-05-05T07:05:54.986Z,100437.72
2023-05-05T07:08:58.290Z,100430.56
2023-05-05T07:12:01.141Z,100429.47
2023-05-05T07:15:12.281Z,100448.22
2023-05-05T07:18:21.961Z,100447.25
2023-05-05T07:21:23.804Z,100448.00
2023-05-05T07:24:27.027Z,100444.56
2023-05-05T07:27:29.209Z,100429.59
2023-05-05T07:30:31.084Z,100412.06
2023-05-05T07:33:32.894Z,100434.69
2023-05-05T07:36:35.310Z,100444.63
2023-05-05T07:39:38.627Z,100435.69
2023-05-05T07:42:41.099Z,100431.53
2023-05-05T07:45:42.954Z,100428.78
2023-05-05T07:48:45.021Z,100432.59
2023-05-05T07:51:47.252Z,100433.94
2023-05-05T07:54:50.752Z,100433.22
2023-05-05T07:57:53.044Z,100432.56
2023-05-05T08:00:55.059Z,100442.97
2023-05-05T08:03:57.021Z,100428.38
2023-05-05T08:06:58.926Z,100437.91
2023-05-05T08:10:02.364Z,100409.75
2023-05-05T08:13:04.255Z,100432.53
2023-05-05T08:16:07.618Z,100436.00
2023-05-05T08:19:21.092Z,100432.75
2023-05-05T08:22:29.925Z,100430.03
2023-05-05T08:25:33.180Z,100424.25
2023-05-05T08:28:39.522Z,100423.59
2023-05-05T08:31:41.343Z,100422.97
2023-05-05T08:34:43.934Z,100420.63
2023-05-05T08:37:46.219Z,100417.13
2023-05-05T08:40:51.973Z,100430.91
2023-05-05T08:43:53.927Z,100418.28
2023-05-05T08:46:56.241Z,100424.53
2023-05-05T08:49:59.506Z,100424.31
2023-05-05T08:53:10.284Z,100420.63
2023-05-05T08:56:15.600Z,100412.44
2023-05-05T08:59:18.927Z,100418.59
2023-05-05T09:02:23.981Z,100416.38
2023-05-05T09:05:26.728Z,100411.91
2023-05-05T09:08:29.897Z,100407.69
2023-05-05T09:11:34.708Z,100395.53
2023-05-05T09:17:58.346Z,100399.75
2023-05-05T09:21:00.357Z,100389.75
2023-05-05T09:24:08.834Z,100386.69
2023-05-05T09:27:22.487Z,100384.31
2023-05-05T09:30:26.162Z,100387.41
2023-05-05T09:33:31.704Z,100374.38
2023-05-05T09:36:43.595Z,100365.88
2023-05-05T09:39:54.083Z,100380.75
2023-05-05T09:43:02.961Z,100379.94
2023-05-05T09:46:08.425Z,100370.63
2023-05-05T09:49:15.815Z,100374.78
2023-05-05T09:52:17.841Z,100347.91
2023-05-05T09:55:19.903Z,100356.41
2023-05-05T09:58:25.961Z,100375.19
2023-05-05T10:01:27.914Z,100360.38
2023-05-05T10:04:30.808Z,100350.25
2023-05-05T10:07:34.220Z,100365.06
2023-05-05T10:10:36.326Z,100356.41
2023-05-05T10:13:42.178Z,100366.22
2023-05-05T10:16:48.346Z,100363.97
2023-05-05T10:19:53.164Z,100359.41
2023-05-05T10:22:57.854Z,100352.78
2023-05-05T10:26:05.088Z,100340.50
2023-05-05T10:29:16.346Z,100342.66
2023-05-05T10:32:51.491Z,100343.00
2023-05-05T10:35:52.797Z,100319.25
2023-05-05T10:38:56.949Z,100335.31
2023-05-05T10:42:04.630Z,100322.28
2023-05-05T10:45:08.980Z,100314.63
2023-05-05T10:48:18.910Z,100289.97
2023-05-05T10:51:39.199Z,100266.91
2023-05-05T10:54:48.332Z,100261.94
2023-05-05T10:57:53.408Z,100255.41
2023-05-05T11:00:56.758Z,100270.94
2023-05-05T11:04:18.133Z,100253.63
2023-05-05T11:07:23.760Z,100244.84
2023-05-05T11:10:26.453Z,100252.28
2023-05-05T11:13:28.772Z,100270.44
2023-05-05T11:16:47.508Z,100286.38
2023-05-05T11:19:52.221Z,100283.13
2023-05-05T11:23:22.128Z,100282.72
2023-05-05T11:26:49.858Z,100274.41
2023-05-05T11:30:10.881Z,100277.13
2023-05-05T11:33:28.393Z,100266.00
2023-05-05T11:36:40.794Z,100265.09
2023-05-05T11:39:54.435Z,100266.13
2023-05-05T11:43:04.822Z,100260.72
2023-05-05T11:46:13.407Z,100251.97
2023-05-05T11:49:26.497Z,100253.19
2023-05-05T11:52:28.426Z,100250.19
2023-05-05T11:55:30.726Z,100259.38
2023-05-05T11:58:32.546Z,100255.09
2023-05-05T12:01:35.983Z,100225.59
2023-05-05T12:04:39.781Z,100243.25
2023-05-05T12:07:42.469Z,100239.69
2023-05-05T12:10:44.292Z,100232.53
2023-05-05T12:13:46.617Z,100241.66
2023-05-05T12:16:55.727Z,100224.31
2023-05-05T12:19:58.931Z,100235.66
2023-05-05T12:23:03.130Z,100222.09
2023-05-05T12:26:05.424Z,100210.22
2023-05-05T12:29:07.385Z,100218.22
2023-05-05T12:32:18.633Z,100222.31
2023-05-05T12:35:22.020Z,100223.22
2023-05-05T12:38:24.268Z,100212.94
2023-05-05T12:41:26.208Z,100229.34
2023-05-05T12:44:35.830Z,100221.38
2023-05-05T12:47:38.454Z,100218.38
2023-05-05T12:50:42.726Z,100211.56
2023-05-05T12:53:44.980Z,100211.31
2023-05-05T12:56:48.009Z,100209.88
2023-05-05T12:59:50.093Z,100204.44
2023-05-05T13:02:53.045Z,100197.03
2023-05-05T13:05:56.675Z,100198.75
2023-05-05T13:08:58.540Z,100179.16
2023-05-05T13:12:03.838Z,100183.13
2023-05-05T13:15:06.767Z,100183.34
2023-05-05T13:18:08.661Z,100181.41
2023-05-05T13:21:11.997Z,100168.41
2023-05-05T13:24:26.040Z,100166.16
2023-05-05T13:27:37.887Z,100145.25
2023-05-05T13:30:39.706Z,100160.72
2023-05-05T13:33:41.867Z,100140.66
2023-05-05T13:36:45.100Z,100154.47
2023-05-05T13:39:46.978Z,100157.53
2023-05-05T13:42:49.136Z,100152.81
2023-05-05T13:45:50.997Z,100152.97
2023-05-05T13:48:56.663Z,100138.06
2023-05-05T13:52:00.538Z,100142.25
2023-05-05T13:55:02.751Z,100142.09
2023-05-05T13:58:05.282Z,100133.00
2023-05-05T14:01:07.147Z,100127.03
2023-05-05T14:04:09.561Z,100133.72
2023-05-05T14:07:12.756Z,100121.69
2023-05-05T14:10:15.085Z,100113.38
2023-05-05T14:13:16.937Z,100117.63
2023-05-05T14:16:19.213Z,100128.25
2023-05-05T14:19:21.017Z,100131.47
2023-05-05T14:22:24.776Z,100129.94
2023-05-05T14:25:26.614Z,100120.81
2023-05-05T14:28:28.488Z,100121.63
2023-05-05T14:31:31.106Z,100124.00
2023-05-05T14:34:33.065Z,100114.34
2023-05-05T14:37:36.416Z,100118.59
2023-05-05T14:40:38.213Z,100101.66
2023-05-05T14:43:41.032Z,100112.22
2023-05-05T14:46:45.362Z,100090.28
2023-05-05T14:49:47.938Z,100110.13
2023-05-05T14:52:51.266Z,100103.16
2023-05-05T14:55:56.031Z,100107.03
2023-05-05T14:58:57.811Z,100104.66
2023-05-05T15:01:59.594Z,100105.63
2023-05-05T15:05:02.248Z,100103.66
2023-05-05T15:08:06.551Z,100101.22
2023-05-05T15:11:08.361Z,100100.91
2023-05-05T15:14:10.149Z,100091.34
2023-05-05T15:17:13.205Z,100112.50
2023-05-05T15:20:15.018Z,100107.72
2023-05-05T15:23:18.341Z,100111.13
2023-05-05T15:26:20.136Z,100097.31
2023-05-05T15:29:23.647Z,100094.69
2023-05-05T15:32:25.581Z,100089.06
2023-05-05T15:35:27.918Z,100104.72
2023-05-05T15:38:31.319Z,100095.50
2023-05-05T15:41:34.630Z,100092.16
2023-05-05T15:44:36.426Z,100087.94
2023-05-05T15:47:39.009Z,100087.25
2023-05-05T15:50:40.957Z,100087.19
2023-05-05T15:53:44.290Z,100089.75
2023-05-05T15:56:46.087Z,100086.00
2023-05-05T15:59:51.092Z,100079.22
2023-05-05T16:02:52.839Z,100089.59
2023-05-05T16:05:54.914Z,100082.63
2023-05-05T16:08:58.726Z,100083.94
2023-05-05T16:12:00.957Z,100073.19
2023-05-05T16:15:02.872Z,100079.66
2023-05-05T16:18:05.067Z,100076.34
2023-05-05T16:21:07.790Z,100075.94
2023-05-05T16:24:15.995Z,100077.41
2023-05-05T16:27:18.745Z,100066.41
2023-05-05T16:30:20.777Z,100079.88
2023-05-05T16:33:25.974Z,100075.34
2023-05-05T16:36:28.012Z,100061.66
2023-05-05T16:39:33.093Z,100067.66
2023-05-05T16:42:34.930Z,100070.16
2023-05-05T16:45:36.836Z,100073.25
2023-05-05T16:48:38.672Z,100063.91
2023-05-05T16:51:42.475Z,100075.44
2023-05-05T16:54:46.603Z,100078.91
2023-05-05T16:57:48.417Z,100071.25
2023-05-05T17:00:50.592Z,100076.72
2023-05-05T17:03:55.351Z,100077.56
2023-05-05T17:06:58.084Z,100076.81
2023-05-05T17:10:02.058Z,100075.53
2023-05-05T17:13:03.989Z,100044.97
2023-05-05T17:16:07.181Z,100076.53
2023-05-05T17:19:09.072Z,100050.88
2023-05-05T17:22:11.684Z,100057.72
2023-05-05T17:25:14.819Z,100079.66
2023-05-05T17:28:17.571Z,100069.47
2023-05-05T17:31:19.668Z,100084.09
2023-05-05T17:34:22.023Z,100053.75
2023-05-05T17:37:24.540Z,100061.06
2023-05-05T17:40:27.723Z,100082.28
2023-05-05T17:43:29.501Z,100092.81
2023-05-05T17:46:31.769Z,100078.31
2023-05-05T17:49:34.441Z,100084.88
2023-05-05T17:52:36.315Z,100083.56
2023-05-05T17:55:39.492Z,100084.56
2023-05-05T17:58:41.546Z,100080.19
2023-05-05T18:01:43.450Z,100069.94
2023-05-05T18:04:45.685Z,100068.16
2023-05-05T18:07:47.580Z,100094.91
2023-05-05T18:10:50.996Z,100087.63
2023-05-05T18:13:52.901Z,100084.19
2023-05-05T18:16:54.676Z,100084.06
2023-05-05T18:19:56.540Z,100088.56
2023-05-05T18:22:58.301Z,100094.06
2023-05-05T18:26:01.460Z,100091.25
2023-05-05T18:29:03.535Z,100103.63
2023-05-05T18:32:06.195Z,100111.53
2023-05-05T18:35:09.680Z,100076.03
2023-05-05T18:38:12.259Z,100106.44
2023-05-05T18:41:16.227Z,100087.91
2023-05-05T18:44:18.423Z,100100.78
2023-05-05T18:47:23.701Z,100078.38
2023-05-05T18:50:25.669Z,100111.41
2023-05-05T18:53:28.884Z,100045.03
2023-05-05T18:56:32.175Z,100093.81
2023-05-05T18:59:34.086Z,100117.75
2023-05-05T19:02:36.568Z,100114.38
2023-05-05T19:05:40.632Z,100116.38
2023-05-05T19:08:43.447Z,100129.31
2023-05-05T19:11:46.620Z,100125.13
2023-05-05T19:14:50.099Z,100120.31
2023-05-05T19:17:52.723Z,100131.47
2023-05-05T19:20:54.630Z,100127.31
2023-05-05T19:23:57.410Z,100130.88
2023-05-05T19:27:02.250Z,100131.22
2023-05-05T19:30:04.788Z,100127.31
2023-05-05T19:33:06.689Z,100109.84
2023-05-05T19:36:08.437Z,100124.81
2023-05-05T19:39:10.315Z,100128.88
2023-05-05T19:42:13.986Z,100132.63
2023-05-05T19:45:16.514Z,100142.22
2023-05-05T19:48:18.313Z,100133.47
2023-05-05T19:51:20.373Z,100139.75
2023-05-05T19:54:22.394Z,100137.59
2023-05-05T19:57:25.624Z,100141.66
2023-05-05T20:00:27.540Z,100118.66
2023-05-05T20:03:30.369Z,100141.09
2023-05-05T20:06:32.441Z,100146.84
2023-05-05T20:09:34.237Z,100150.28
2023-05-05T20:12:38.016Z,100150.41
2023-05-05T20:15:40.107Z,100137.94
2023-05-05T20:18:42.192Z,100142.44
2023-05-05T20:21:44.040Z,100147.78
2023-05-05T20:24:45.833Z,100157.63
2023-05-05T20:27:49.649Z,100141.66
2023-05-05T20:30:51.451Z,100150.28
2023-05-05T20:33:54.240Z,100131.03
2023-05-05T20:36:58.124Z,100140.53
2023-05-05T20:40:00.504Z,100141.53
2023-05-05T20:43:03.746Z,100135.38
2023-05-05T20:46:05.985Z,100136.13
2023-05-05T20:49:08.180Z,100136.16
2023-05-05T20:52:10.005Z,100132.16
2023-05-05T20:55:11.784Z,100133.47
2023-05-05T20:58:15.521Z,100118.34
2023-05-05T21:01:17.315Z,100126.34
2023-05-05T21:04:19.186Z,100139.63
2023-05-05T21:07:21.141Z,100146.28
2023-05-05T21:10:23.350Z,100146.91
2023-05-05T21:13:26.559Z,100138.88
2023-05-05T21:16:29.099Z,100143.72
2023-05-05T21:19:30.926Z,100114.84
2023-05-05T21:22:33.095Z,100135.34
2023-05-05T21:25:34.990Z,100136.94
2023-05-05T21:28:38.456Z,100133.44
2023-05-05T21:31:40.549Z,100133.59
2023-05-05T21:34:43.066Z,100122.47
2023-05-05T21:37:44.986Z,100124.97
2023-05-05T21:40:47.235Z,100119.25
2023-05-05T21:43:50.560Z,100112.41
2023-05-05T21:46:52.615Z,100108.72
2023-05-05T21:49:54.411Z,100105.44
2023-05-05T21:52:57.131Z,100108.28
2023-05-05T21:55:59.098Z,100095.94
2023-05-05T21:59:02.751Z,100098.81
2023-05-05T22:02:04.552Z,100102.81
2023-05-05T22:05:08.162Z,100090.38
2023-05-05T22:08:10.030Z,100101.03
2023-05-05T22:11:11.933Z,100081.97
2023-05-05T22:14:15.986Z,100104.31
2023-05-05T22:17:17.978Z,100109.63
2023-05-05T22:20:19.959Z,100103.44
2023-05-05T22:23:21.770Z,100117.53
2023-05-05T22:26:23.878Z,100113.00
2023-05-05T22:29:27.121Z,100119.09
2023-05-05T22:32:30.056Z,100113.91
2023-05-05T22:35:32.161Z,100098.50
2023-05-05T22:38:34.958Z,100121.91
2023-05-05T22:41:36.921Z,100125.25
2023-05-05T22:44:40.252Z,100126.53
2023-05-05T22:47:42.198Z,100127.50
2023-05-05T22:50:43.977Z,100122.63
2023-05-05T22:53:45.838Z,100127.59
2023-05-05T22:56:47.659Z,100129.25
2023-05-05T22:59:51.481Z,100111.91
2023-05-05T23:02:56.127Z,100125.25
2023-05-05T23:05:58.857Z,100119.72
2023-05-05T23:09:00.754Z,100128.81
2023-05-05T23:12:02.952Z,100117.53
2023-05-05T23:15:08.248Z,100118.16
2023-05-05T23:18:10.387Z,100121.78
2023-05-05T23:21:12.226Z,100119.97
2023-05-05T23:24:14.725Z,100106.47
2023-05-05T23:27:16.579Z,100112.16
2023-05-05T23:30:20.142Z,100111.78
2023-05-05T23:33:22.793Z,100082.69
2023-05-05T23:36:24.629Z,100105.44
2023-05-05T23:39:26.781Z,100109.75
2023-05-05T23:42:28.647Z,100109.59
2023-05-05T23:45:31.854Z,100118.59
2023-05-05T23:48:33.731Z,100113.00
2023-05-05T23:51:35.590Z,100123.22
2023-05-05T23:54:37.701Z,100115.09
2023-05-05T23:57:39.532Z,100127.06
